Time;durP1;ratioP1;P1;durP2;ratioP2;P2;SDS_P1;SDS_P2;PMS_P1;PMS_P2;Temp;Humidity;BMP_temperature;BMP_pressure;BME280_temperature;BME280_humidity;BME280_pressure;Samples;Min_cycle;Max_cycle;Signal;HPM_P1;HPM_P2
2023/02/06 00:01:46;;;;;;;469.02;77.88;;;2.80;99.90;;;1.52;100.00;99339.91;5089200;28;20420;-74
2023/02/06 00:04:13;;;;;;;352.95;66.72;;;2.80;99.90;;;1.50;100.00;99334.00;5089183;28;20413;-74
2023/02/06 00:06:39;;;;;;;465.73;73.10;;;2.80;99.90;;;1.49;100.00;99339.41;5089251;28;20398;-74
2023/02/06 00:09:05;;;;;;;349.73;62.50;;;2.80;99.90;;;1.49;100.00;99348.06;5089363;28;20763;-74
2023/02/06 00:11:32;;;;;;;456.92;78.32;;;2.80;99.90;;;1.50;100.00;99347.06;5088784;28;20395;-74
2023/02/06 00:13:58;;;;;;;532.13;78.55;;;2.80;99.90;;;1.49;100.00;99345.44;5089367;28;20402;-74
2023/02/06 00:16:27;;;;;;;468.75;72.88;;;2.80;99.90;;;1.48;100.00;99345.59;5089102;28;20409;-74
2023/02/06 00:18:55;;;;;;;426.85;67.60;;;2.80;99.90;;;1.49;100.00;99339.41;5089398;28;20413;-74
2023/02/06 00:21:24;;;;;;;555.80;82.97;;;2.80;99.90;;;1.48;100.00;99341.19;5089053;28;20419;-74
2023/02/06 00:23:52;;;;;;;436.33;68.35;;;2.80;99.90;;;1.49;100.00;99350.66;5089158;28;20388;-74
2023/02/06 00:26:19;;;;;;;488.85;75.60;;;2.80;99.90;;;1.49;100.00;99342.00;5089096;28;20411;-74
2023/02/06 00:28:45;;;;;;;401.33;66.82;;;2.80;99.90;;;1.50;100.00;99346.28;5089123;28;20396;-74
2023/02/06 00:31:12;;;;;;;491.08;71.80;;;2.80;99.90;;;1.50;100.00;99341.84;5089043;28;20603;-74
2023/02/06 00:33:39;;;;;;;463.77;73.13;;;2.80;99.90;;;1.50;100.00;99341.84;5090650;28;20482;-74
2023/02/06 00:36:07;;;;;;;397.05;63.80;;;2.80;99.90;;;1.47;100.00;99333.50;5092954;28;20415;-74
2023/02/06 00:38:33;;;;;;;344.38;61.22;;;2.70;99.90;;;1.47;100.00;99334.31;5093089;28;20426;-74
2023/02/06 00:40:59;;;;;;;544.07;75.97;;;2.80;99.90;;;1.48;100.00;99340.38;5093069;28;20394;-74
2023/02/06 00:43:25;;;;;;;517.08;83.57;;;2.80;99.90;;;1.47;100.00;99336.13;5092653;28;20402;-74
2023/02/06 00:45:51;;;;;;;497.38;76.38;;;2.80;99.90;;;1.46;100.00;99331.84;5092816;28;20425;-74
2023/02/06 00:48:17;;;;;;;512.20;74.50;;;2.70;99.90;;;1.45;100.00;99325.00;5092822;28;20865;-74
2023/02/06 00:50:48;;;;;;;553.47;76.10;;;2.70;99.90;;;1.45;100.00;99323.19;5092803;28;20402;-74
2023/02/06 00:53:14;;;;;;;563.08;80.97;;;2.80;99.90;;;1.46;100.00;99331.84;5092504;28;20410;-74
2023/02/06 00:55:40;;;;;;;411.30;67.63;;;2.80;99.90;;;1.47;100.00;99331.72;5092509;28;20406;-74
2023/02/06 00:58:05;;;;;;;552.47;73.13;;;2.80;99.90;;;1.48;100.00;99330.75;5092606;28;20405;-74
2023/02/06 01:00:31;;;;;;;583.03;80.22;;;2.80;99.90;;;1.50;100.00;99334.00;5092711;28;20435;-74
2023/02/06 01:02:57;;;;;;;485.40;74.78;;;2.80;99.90;;;1.49;100.00;99328.97;5092329;28;20409;-74
2023/02/06 01:05:24;;;;;;;504.05;73.05;;;2.80;99.90;;;1.47;100.00;99326.50;5092477;28;20588;-74
2023/02/06 01:07:51;;;;;;;551.80;72.45;;;2.80;99.90;;;1.48;100.00;99328.16;5092513;28;20492;-75
2023/02/06 01:10:17;;;;;;;478.83;71.43;;;2.80;99.90;;;1.49;100.00;99331.56;5092598;28;20423;-74
2023/02/06 01:12:43;;;;;;;580.45;78.95;;;2.80;99.90;;;1.48;100.00;99338.59;5092059;28;20871;-74
2023/02/06 01:15:11;;;;;;;522.35;72.95;;;2.80;99.90;;;1.51;100.00;99340.88;5092378;28;20493;-74
2023/02/06 01:17:39;;;;;;;557.53;78.68;;;2.80;99.90;;;1.51;100.00;99329.63;5092143;28;20402;-74
2023/02/06 01:20:09;;;;;;;504.63;75.20;;;2.80;99.90;;;1.50;100.00;99341.06;5092193;28;20423;-75
2023/02/06 01:22:36;;;;;;;469.00;69.13;;;2.70;99.90;;;1.49;100.00;99345.44;5073652;28;20402;-74
2023/02/06 01:25:05;;;;;;;508.23;72.97;;;2.80;99.90;;;1.51;100.00;99348.72;5092177;28;20443;-74
2023/02/06 01:27:33;;;;;;;628.55;91.18;;;2.80;99.90;;;1.51;100.00;99346.09;5091977;28;20394;-74
2023/02/06 01:29:59;;;;;;;408.27;64.97;;;2.80;99.90;;;1.50;100.00;99349.69;5073983;28;20537;-74
2023/02/06 01:32:25;;;;;;;505.42;77.07;;;2.80;99.90;;;1.53;100.00;99351.19;5091685;28;20958;-74
2023/02/06 01:34:51;;;;;;;426.42;70.53;;;2.80;99.90;;;1.54;100.00;99348.44;5092017;28;20481;-74
2023/02/06 01:37:17;;;;;;;488.25;77.05;;;2.80;99.90;;;1.53;100.00;99344.19;5092048;28;20505;-74
2023/02/06 01:39:43;;;;;;;455.65;72.30;;;2.80;99.90;;;1.52;100.00;99350.38;5091974;28;20410;-74
2023/02/06 01:42:12;;;;;;;417.92;70.60;;;2.80;99.90;;;1.54;100.00;99350.22;5091496;28;20402;-74
2023/02/06 01:44:38;;;;;;;517.15;75.80;;;2.80;99.90;;;1.53;100.00;99353.78;5090960;28;20462;-75
2023/02/06 01:47:04;;;;;;;432.33;68.05;;;2.80;99.90;;;1.51;100.00;99343.50;5091727;28;20398;-74
2023/02/06 01:49:36;;;;;;;445.80;72.18;;;2.80;99.90;;;1.53;100.00;99332.91;5091791;28;20390;-75
2023/02/06 01:52:10;;;;;;;427.23;71.18;;;2.80;99.90;;;1.53;100.00;99330.31;5091325;28;20422;-74
2023/02/06 01:54:36;;;;;;;485.98;73.35;;;2.80;99.90;;;1.52;100.00;99331.28;5091747;28;25082;-75
2023/02/06 01:57:08;;;;;;;628.63;85.93;;;2.80;99.90;;;1.50;100.00;99323.56;5091348;28;20486;-75
2023/02/06 01:59:36;;;;;;;405.73;72.30;;;2.80;99.90;;;1.57;100.00;99333.47;5091563;28;20470;-75
2023/02/06 02:02:02;;;;;;;543.95;81.00;;;2.80;99.90;;;1.52;100.00;99339.09;5091216;28;20401;-75
2023/02/06 02:04:32;;;;;;;680.33;85.18;;;2.80;99.90;;;1.50;100.00;99331.41;5091454;28;20429;-75
2023/02/06 02:07:08;;;;;;;424.63;66.60;;;2.80;99.90;;;1.49;100.00;99339.41;5091343;28;20821;-75
2023/02/06 02:09:34;;;;;;;517.13;79.82;;;2.80;99.90;;;1.50;100.00;99341.84;5091172;28;25112;-75
2023/02/06 02:12:00;;;;;;;624.40;89.70;;;2.80;99.90;;;1.49;100.00;99342.00;5090793;28;20469;-75
2023/02/06 02:14:26;;;;;;;627.92;86.22;;;2.80;99.90;;;1.47;100.00;99330.91;5089915;28;20405;-74
2023/02/06 02:17:13;;;;;;;555.15;87.97;;;2.80;99.90;;;1.48;100.00;99338.59;5090931;28;20424;-75
2023/02/06 02:20:30;;;;;;;517.83;81.47;;;2.80;99.90;;;1.41;100.00;99337.53;5091064;28;25091;-74
2023/02/06 02:23:24;;;;;;;555.95;80.72;;;2.70;99.90;;;1.41;100.00;99327.09;5090774;28;20409;-74
2023/02/06 02:26:44;;;;;;;476.73;74.85;;;2.70;99.90;;;1.42;100.00;99331.34;5090646;28;25090;-74
2023/02/06 02:30:09;;;;;;;458.42;72.13;;;2.70;99.90;;;1.43;100.00;99339.97;5090830;28;20386;-74
2023/02/06 02:33:25;;;;;;;474.15;76.15;;;2.70;99.90;;;1.41;100.00;99334.09;5076009;28;20492;-74
2023/02/06 02:35:59;;;;;;;385.70;71.45;;;2.70;99.90;;;1.46;100.00;99331.84;5090941;28;20386;-75
2023/02/06 02:38:42;;;;;;;591.20;86.15;;;2.70;99.90;;;1.43;100.00;99334.75;5090872;28;20472;-74
2023/02/06 02:41:15;;;;;;;491.02;76.63;;;2.70;99.90;;;1.44;100.00;99333.78;5090647;28;25123;-74
2023/02/06 02:43:48;;;;;;;562.67;80.88;;;2.70;99.90;;;1.42;100.00;99328.72;5090423;28;25095;-74
2023/02/06 02:46:22;;;;;;;656.63;85.57;;;2.70;99.90;;;1.40;100.00;99322.00;5090412;28;20537;-74
2023/02/06 02:48:53;;;;;;;665.80;86.93;;;2.70;99.90;;;1.40;100.00;99327.22;5090652;28;20506;-74
2023/02/06 02:51:21;;;;;;;651.40;90.63;;;2.70;99.90;;;1.40;100.00;99319.41;5090409;28;20411;-74
2023/02/06 02:53:47;;;;;;;558.75;81.65;;;2.70;99.90;;;1.39;100.00;99320.34;5090270;28;20397;-74
2023/02/06 02:56:17;;;;;;;548.65;78.20;;;2.70;99.90;;;1.38;100.00;99323.94;5090126;28;20421;-74
2023/02/06 02:58:45;;;;;;;625.33;89.50;;;2.70;99.90;;;1.38;100.00;99321.31;5090549;28;20404;-74
2023/02/06 03:01:17;;;;;;;536.75;75.85;;;2.70;99.90;;;1.39;100.00;99318.56;5090280;28;20402;-74
2023/02/06 03:03:47;;;;;;;566.47;76.88;;;2.60;99.90;;;1.37;100.00;99315.28;5090065;28;20762;-74
2023/02/06 03:06:39;;;;;;;638.15;84.85;;;2.70;99.90;;;1.36;100.00;99320.63;5090174;28;20417;-74
2023/02/06 03:09:18;;;;;;;454.30;69.30;;;2.70;99.90;;;1.37;100.00;99317.88;5090208;28;20415;-74
2023/02/06 03:11:53;;;;;;;418.25;69.10;;;2.70;99.90;;;1.38;100.00;99314.31;5089825;28;20409;-74
2023/02/06 03:14:27;;;;;;;605.75;84.85;;;2.70;99.90;;;1.35;100.00;99322.44;5090127;28;20431;-74
2023/02/06 03:17:02;;;;;;;622.50;84.90;;;2.70;99.90;;;1.36;100.00;99323.25;5089905;28;25176;-74
2023/02/06 03:19:32;;;;;;;526.17;78.05;;;2.70;99.90;;;1.34;100.00;99312.16;5089899;28;25100;-75
2023/02/06 03:22:01;;;;;;;615.47;84.65;;;2.60;99.90;;;1.33;100.00;99319.16;5089766;28;20477;-74
2023/02/06 03:24:33;;;;;;;519.88;80.35;;;2.60;99.90;;;1.34;100.00;99309.56;5071574;28;20489;-74
2023/02/06 03:27:04;;;;;;;630.83;92.25;;;2.60;99.90;;;1.34;100.00;99320.81;5089887;28;20397;-74
2023/02/06 03:29:34;;;;;;;593.97;87.80;;;2.60;99.90;;;1.33;100.00;99310.50;5089754;28;20407;-73
2023/02/06 03:32:05;;;;;;;578.28;86.28;;;2.60;99.90;;;1.33;100.00;99310.50;5089552;28;20423;-74
2023/02/06 03:34:41;;;;;;;582.42;81.53;;;2.60;99.90;;;1.31;100.00;99309.81;5090002;28;20690;-74
2023/02/06 03:37:09;;;;;;;417.75;67.72;;;2.60;99.90;;;1.31;100.00;99308.03;5089783;28;20373;-74
2023/02/06 03:39:35;;;;;;;500.70;71.35;;;2.60;99.90;;;1.32;100.00;99301.03;5089666;28;20486;-73
2023/02/06 03:42:03;;;;;;;425.90;66.77;;;2.60;99.90;;;1.33;100.00;99303.50;5089302;28;20817;-74
2023/02/06 03:44:35;;;;;;;522.08;82.80;;;2.60;99.90;;;1.35;100.00;99303.38;5089531;28;20417;-74
2023/02/06 03:47:03;;;;;;;518.03;73.10;;;2.70;99.90;;;1.34;100.00;99304.31;5089678;28;20417;-74
2023/02/06 03:49:31;;;;;;;464.17;72.97;;;2.60;99.90;;;1.34;100.00;99307.75;5089534;28;20416;-74
2023/02/06 03:52:04;;;;;;;599.80;92.63;;;2.60;99.90;;;1.35;100.00;99313.81;5089409;28;20541;-74
2023/02/06 03:54:34;;;;;;;564.63;87.22;;;2.60;99.90;;;1.31;100.00;99312.44;5089684;28;20390;-74
2023/02/06 03:57:04;;;;;;;539.42;83.85;;;2.60;99.90;;;1.30;100.00;99324.66;5089173;28;20924;-74
2023/02/06 03:59:30;;;;;;;423.25;69.60;;;2.60;99.90;;;1.32;100.00;99324.50;5089605;28;20824;-74
2023/02/06 04:01:59;;;;;;;541.97;83.43;;;2.60;99.90;;;1.32;100.00;99324.50;5089225;28;20398;-74
2023/02/06 04:04:29;;;;;;;505.30;76.68;;;2.60;99.90;;;1.32;100.00;99324.50;5089293;28;20392;-74
2023/02/06 04:06:56;;;;;;;498.48;76.13;;;2.60;99.90;;;1.33;100.00;99327.00;5089198;28;20414;-74
2023/02/06 04:09:22;;;;;;;500.77;78.25;;;2.60;99.90;;;1.34;100.00;99328.63;5088843;28;20452;-74
2023/02/06 04:11:50;;;;;;;499.53;77.67;;;2.60;99.90;;;1.36;100.00;99333.69;5088910;28;20397;-74
2023/02/06 04:14:15;;;;;;;491.52;76.75;;;2.70;99.90;;;1.37;100.00;99328.31;5089276;28;20490;-74
2023/02/06 04:16:41;;;;;;;457.25;73.75;;;2.70;99.90;;;1.38;100.00;99322.16;5089071;28;20485;-74
2023/02/06 04:19:07;;;;;;;459.95;75.13;;;2.60;99.90;;;1.38;100.00;99334.38;5089221;28;20532;-74
2023/02/06 04:21:33;;;;;;;512.30;80.85;;;2.70;99.90;;;1.39;100.00;99333.41;5088801;28;20445;-74
2023/02/06 04:23:59;;;;;;;500.25;84.95;;;2.70;99.90;;;1.40;100.00;99322.81;5089146;28;20879;-74
2023/02/06 04:26:25;;;;;;;527.28;86.13;;;2.70;99.90;;;1.39;100.00;99322.97;5088937;28;20418;-74
2023/02/06 04:28:52;;;;;;;508.25;85.00;;;2.70;99.90;;;1.40;100.00;99332.44;5087893;28;20437;-74
2023/02/06 04:31:18;;;;;;;454.02;77.47;;;2.70;99.90;;;1.39;100.00;99317.75;5089013;28;20738;-74
2023/02/06 04:33:44;;;;;;;502.75;84.70;;;2.70;99.90;;;1.38;100.00;99318.72;5089006;28;20436;-74
2023/02/06 04:36:10;;;;;;;494.60;84.50;;;2.60;99.90;;;1.36;100.00;99313.63;5088906;28;20397;-74
2023/02/06 04:38:36;;;;;;;576.42;97.22;;;2.70;99.90;;;1.36;100.00;99315.41;5089261;28;20394;-74
2023/02/06 04:41:03;;;;;;;509.17;83.65;;;2.70;99.90;;;1.32;100.00;99314.09;5088863;28;20535;-74
2023/02/06 04:43:29;;;;;;;538.10;83.10;;;2.60;99.90;;;1.32;100.00;99316.69;5088925;28;20616;-74
2023/02/06 04:45:56;;;;;;;479.27;79.50;;;2.60;99.90;;;1.32;100.00;99317.50;5088856;28;20423;-73
2023/02/06 04:48:22;;;;;;;557.03;82.23;;;2.60;99.90;;;1.32;100.00;99316.69;5088894;28;20394;-73
2023/02/06 04:50:48;;;;;;;500.48;84.63;;;2.60;99.90;;;1.32;100.00;99311.47;5088842;28;20903;-73
2023/02/06 04:53:15;;;;;;;539.50;94.55;;;2.60;99.90;;;1.33;100.00;99315.72;5088540;28;20489;-73
2023/02/06 04:55:40;;;;;;;459.10;84.57;;;2.60;99.90;;;1.34;100.00;99319.97;5087540;28;20802;-74
2023/02/06 04:58:06;;;;;;;459.70;86.60;;;2.60;99.90;;;1.32;100.00;99324.50;5100987;22;20551;-75
2023/02/06 05:00:32;;;;;;;533.80;92.95;;;2.60;99.90;;;1.28;100.00;99325.78;5087234;28;20401;-75
2023/02/06 05:03:00;;;;;;;490.73;87.25;;;2.60;99.90;;;1.28;100.00;99315.34;5088154;28;20436;-75
2023/02/06 05:05:26;;;;;;;514.25;95.30;;;2.60;99.90;;;1.27;100.00;99313.69;5088710;28;20882;-76
2023/02/06 05:07:52;;;;;;;493.98;87.40;;;2.60;99.90;;;1.24;100.00;99319.19;5078506;28;20399;-75
2023/02/06 05:10:18;;;;;;;542.97;88.40;;;2.50;99.90;;;1.21;100.00;99327.28;5073106;28;20424;-75
2023/02/06 05:12:46;;;;;;;514.72;91.35;;;2.50;99.90;;;1.23;100.00;99328.81;5077537;28;20419;-75
2023/02/06 05:15:13;;;;;;;525.13;89.95;;;2.50;99.90;;;1.23;100.00;99325.38;5080483;28;20450;-75
2023/02/06 05:17:39;;;;;;;578.25;92.25;;;2.50;99.90;;;1.22;100.00;99323.72;5088112;28;20398;-76
2023/02/06 05:20:07;;;;;;;542.42;88.25;;;2.50;99.90;;;1.22;100.00;99329.78;5083917;28;20410;-75
2023/02/06 05:22:34;;;;;;;541.17;90.35;;;2.50;99.90;;;1.24;100.00;99334.84;5091693;28;20490;-75
2023/02/06 05:25:00;;;;;;;516.45;86.15;;;2.50;99.90;;;1.22;100.00;99324.56;5092188;28;20976;-78
2023/02/06 05:27:26;;;;;;;526.20;93.07;;;2.50;99.90;;;1.26;100.00;99327.72;5092063;28;20386;-75
2023/02/06 05:29:51;;;;;;;426.88;79.30;;;2.60;99.90;;;1.26;100.00;99327.72;5091938;28;20903;-76
2023/02/06 05:32:18;;;;;;;521.03;95.20;;;2.60;99.90;;;1.28;100.00;99333.59;5091760;28;20463;-76
2023/02/06 05:34:44;;;;;;;524.75;93.03;;;2.60;99.90;;;1.25;100.00;99334.72;5091949;28;20875;-77
2023/02/06 05:37:12;;;;;;;484.38;89.80;;;2.50;99.90;;;1.25;100.00;99336.50;5091632;28;20416;-76
2023/02/06 05:39:37;;;;;;;531.17;97.83;;;2.60;99.90;;;1.25;100.00;99329.50;5091745;28;20404;-76
2023/02/06 05:42:04;;;;;;;529.38;102.18;;;2.50;99.90;;;1.24;100.00;99321.81;5073532;28;20410;-76
2023/02/06 05:44:29;;;;;;;515.83;96.20;;;2.50;99.90;;;1.21;100.00;99329.91;5079744;28;20553;-76
2023/02/06 05:46:56;;;;;;;451.75;85.00;;;2.50;99.90;;;1.19;100.00;99331.84;5087568;28;20473;-76
2023/02/06 05:49:21;;;;;;;515.38;95.82;;;2.50;99.90;;;1.19;100.00;99334.47;5091771;28;20397;-77
2023/02/06 05:51:47;;;;;;;551.70;103.47;;;2.50;99.90;;;1.20;100.00;99333.50;5091461;28;20826;-77
2023/02/06 05:54:17;;;;;;;532.50;95.95;;;2.50;99.90;;;1.17;100.00;99332.81;5091499;28;20405;-75
2023/02/06 05:56:43;;;;;;;494.15;92.28;;;2.50;99.90;;;1.18;100.00;99328.44;5082192;28;20396;-76
2023/02/06 05:59:09;;;;;;;538.13;102.63;;;2.50;99.90;;;1.17;100.00;99329.38;5079318;28;20686;-75
2023/02/06 06:01:35;;;;;;;456.60;90.53;;;2.50;99.90;;;1.17;100.00;99332.00;5070791;28;20401;-76
2023/02/06 06:04:02;;;;;;;475.98;88.95;;;2.50;99.90;;;1.16;100.00;99335.56;5071171;28;20407;-77
2023/02/06 06:06:28;;;;;;;432.67;84.45;;;2.50;99.90;;;1.17;100.00;99332.81;5069930;28;20712;-77
2023/02/06 06:08:53;;;;;;;518.67;97.72;;;2.50;99.90;;;1.17;100.00;99324.16;5071497;28;20781;-76
2023/02/06 06:11:21;;;;;;;458.57;86.73;;;2.50;99.90;;;1.17;100.00;99325.00;5071588;28;20465;-76
2023/02/06 06:13:46;;;;;;;519.63;95.15;;;2.50;99.90;;;1.19;100.00;99329.25;5091156;28;20840;-74
2023/02/06 06:16:12;;;;;;;489.23;90.37;;;2.50;99.90;;;1.19;100.00;99337.91;5091038;28;20473;-76
2023/02/06 06:18:38;;;;;;;545.50;100.22;;;2.50;99.90;;;1.20;100.00;99334.34;5090705;28;20488;-76
2023/02/06 06:21:05;;;;;;;483.65;93.32;;;2.50;99.90;;;1.19;100.00;99337.91;5090963;28;20429;-76
2023/02/06 06:23:31;;;;;;;467.90;93.40;;;2.50;99.90;;;1.18;100.00;99338.84;5090560;28;20402;-76
2023/02/06 06:25:56;;;;;;;538.15;100.47;;;2.50;99.90;;;1.17;100.00;99337.22;5090804;28;20420;-75
2023/02/06 06:28:24;;;;;;;546.22;103.88;;;2.50;99.90;;;1.17;100.00;99342.44;5090927;28;20463;-76
2023/02/06 06:30:50;;;;;;;531.15;104.20;;;2.50;99.90;;;1.14;100.00;99335.69;5089300;28;20388;-75
2023/02/06 06:33:16;;;;;;;440.35;92.95;;;2.40;99.90;;;1.12;100.00;99350.69;5090694;28;20453;-76
2023/02/06 06:35:42;;;;;;;476.85;94.32;;;2.40;99.90;;;1.11;100.00;99350.81;5091055;28;20978;-75
2023/02/06 06:38:08;;;;;;;525.15;102.85;;;2.40;99.90;;;1.09;100.00;99356.19;5090663;28;20402;-76
2023/02/06 06:40:34;;;;;;;520.43;101.27;;;2.40;99.90;;;1.08;100.00;99351.09;5090877;28;20406;-76
2023/02/06 06:43:00;;;;;;;442.95;87.65;;;2.40;99.90;;;1.08;100.00;99345.88;5090289;28;20487;-76
2023/02/06 06:45:27;;;;;;;405.97;85.83;;;2.40;99.90;;;1.10;100.00;99350.00;5090815;28;20413;-76
2023/02/06 06:47:53;;;;;;;407.50;85.07;;;2.40;99.90;;;1.10;100.00;99350.00;5090706;28;20406;-76
2023/02/06 06:50:19;;;;;;;527.73;101.03;;;2.40;99.90;;;1.09;100.00;99352.75;5090663;28;20460;-76
2023/02/06 06:52:45;;;;;;;471.35;102.88;;;2.40;99.90;;;1.12;100.00;99352.47;5090266;28;20454;-76
2023/02/06 06:55:11;;;;;;;483.40;101.53;;;2.40;99.90;;;1.07;100.00;99357.28;5090543;28;20903;-76
2023/02/06 06:57:37;;;;;;;456.67;98.32;;;2.40;99.90;;;1.05;100.00;99361.84;5089012;28;20433;-76
2023/02/06 07:00:04;;;;;;;462.48;97.45;;;2.40;99.90;;;1.02;100.00;99356.91;5090494;28;20829;-76
2023/02/06 07:02:31;;;;;;;429.43;89.90;;;2.30;99.90;;;0.99;100.00;99358.00;5090148;28;20733;-76
2023/02/06 07:04:59;;;;;;;369.40;85.07;;;2.30;99.90;;;1.03;100.00;99350.72;5090416;28;20437;-76
2023/02/06 07:07:25;;;;;;;421.00;87.65;;;2.30;99.90;;;1.01;100.00;99353.47;5090153;28;20422;-76
2023/02/06 07:09:51;;;;;;;416.63;84.05;;;2.30;99.90;;;1.03;100.00;99351.53;5090267;28;20401;-75
2023/02/06 07:12:16;;;;;;;513.40;101.68;;;2.40;99.90;;;1.03;100.00;99356.75;5089910;28;20727;-76
2023/02/06 07:14:42;;;;;;;423.83;92.60;;;2.40;99.90;;;1.03;100.00;99354.16;5090096;28;20398;-76
2023/02/06 07:17:08;;;;;;;369.65;81.97;;;2.40;99.90;;;1.03;100.00;99348.94;5089912;28;20857;-75
2023/02/06 07:19:36;;;;;;;406.57;83.47;;;2.30;99.90;;;1.05;100.00;99356.63;5089909;28;20394;-77
2023/02/06 07:22:02;;;;;;;407.10;87.03;;;2.40;99.90;;;1.06;100.00;99350.41;5088596;28;20409;-76
2023/02/06 07:24:28;;;;;;;447.98;91.20;;;2.40;99.90;;;1.06;100.00;99356.44;5084150;28;20868;-76
2023/02/06 07:26:56;;;;;;;363.75;80.75;;;2.40;99.90;;;1.07;100.00;99355.50;5089649;28;20454;-76
2023/02/06 07:29:22;;;;;;;385.85;84.82;;;2.40;99.90;;;1.09;100.00;99360.56;5066028;28;20445;-75
2023/02/06 07:31:48;;;;;;;404.73;85.50;;;2.40;99.90;;;1.10;100.00;99363.03;5083355;28;20812;-75
2023/02/06 07:34:15;;;;;;;408.15;83.60;;;2.40;99.90;;;1.11;100.00;99369.09;5079370;28;20412;-75
2023/02/06 07:36:42;;;;;;;378.95;81.15;;;2.40;99.90;;;1.13;100.00;99365.34;5080884;28;20432;-75
2023/02/06 07:39:08;;;;;;;316.58;72.43;;;2.40;99.90;;;1.15;100.00;99365.22;5089117;28;20396;-75
2023/02/06 07:41:34;;;;;;;391.38;82.88;;;2.50;99.90;;;1.14;100.00;99367.00;5088786;28;20485;-75
2023/02/06 07:44:00;;;;;;;336.55;73.22;;;2.50;99.90;;;1.16;100.00;99365.06;5075881;28;20399;-75
2023/02/06 07:46:27;;;;;;;364.40;77.70;;;2.50;99.90;;;1.16;100.00;99364.25;5087630;28;20441;-76
2023/02/06 07:48:52;;;;;;;338.73;77.05;;;2.50;99.90;;;1.19;100.00;99368.38;5079908;28;20409;-75
2023/02/06 07:51:19;;;;;;;373.53;79.27;;;2.50;99.90;;;1.19;100.00;99363.16;5081817;28;20882;-83
2023/02/06 07:53:47;;;;;;;355.25;79.40;;;2.50;99.90;;;1.20;100.00;99363.03;5091781;28;20400;-81
2023/02/06 07:56:15;;;;;;;335.08;73.53;;;2.50;99.90;;;1.21;100.00;99359.41;5081247;28;20406;-78
2023/02/06 07:58:42;;;;;;;348.80;85.50;;;2.50;99.90;;;1.22;100.00;99363.69;5088692;28;20656;-75
2023/02/06 08:01:08;;;;;;;346.27;83.15;;;2.50;99.90;;;1.24;100.00;99366.97;5081898;28;20501;-77
2023/02/06 08:03:35;;;;;;;398.27;88.32;;;2.50;99.90;;;1.25;100.00;99365.19;5082182;28;20406;-75
2023/02/06 08:06:06;;;;;;;370.73;84.63;;;2.50;99.90;;;1.24;100.00;99353.94;5087085;28;20414;-76
2023/02/06 08:08:32;;;;;;;317.48;75.85;;;2.50;99.90;;;1.26;100.00;99352.00;5069325;28;20394;-76
2023/02/06 08:11:04;;;;;;;288.77;71.80;;;2.50;99.90;;;1.29;100.00;99350.88;5069192;28;20768;-76
2023/02/06 08:13:34;;;;;;;356.00;81.25;;;2.60;99.90;;;1.29;100.00;99354.31;5088511;28;20421;-77
2023/02/06 08:16:04;;;;;;;316.05;74.43;;;2.60;99.90;;;1.32;100.00;99359.25;5107218;28;20779;-76
2023/02/06 08:18:30;;;;;;;305.27;71.32;;;2.60;99.90;;;1.35;100.00;99356.38;5077251;28;20418;-76
2023/02/06 08:21:01;;;;;;;296.58;67.50;;;2.60;99.90;;;1.38;100.00;99348.25;5085019;28;20826;-77
2023/02/06 08:23:27;;;;;;;276.65;66.03;;;2.70;99.90;;;1.41;100.00;99352.34;5088941;28;20917;-78
2023/02/06 08:26:01;;;;;;;253.17;59.87;;;2.70;99.90;;;1.42;100.00;99347.00;5089177;28;20441;-77
2023/02/06 08:28:27;;;;;;;245.32;60.80;;;2.70;99.90;;;1.47;100.00;99338.72;5091916;28;25089;-84
2023/02/06 08:30:53;;;;;;;268.70;64.45;;;2.70;99.90;;;1.45;100.00;99340.66;5091473;28;20427;-77
2023/02/06 08:33:19;;;;;;;250.02;63.17;;;2.70;99.90;;;1.46;100.00;99339.69;5089795;28;20818;-76
2023/02/06 08:35:45;;;;;;;267.63;60.93;;;2.70;99.90;;;1.46;100.00;99339.69;5089139;28;20493;-80
2023/02/06 08:38:11;;;;;;;258.50;60.72;;;2.70;99.90;;;1.48;100.00;99337.75;5066508;28;20459;-80
2023/02/06 08:40:37;;;;;;;197.75;52.88;;;2.80;99.90;;;1.53;100.00;99353.78;5079135;28;20398;-79
2023/02/06 08:43:04;;;;;;;242.57;60.47;;;2.80;99.90;;;1.52;100.00;99360.81;5069761;28;20835;-77
2023/02/06 08:45:30;;;;;;;228.65;56.08;;;2.80;99.90;;;1.53;100.00;99356.41;5084029;28;20443;-81
2023/02/06 08:47:56;;;;;;;226.93;58.00;;;2.80;99.90;;;1.54;100.00;99348.44;5072454;28;20408;-79
2023/02/06 08:50:21;;;;;;;220.23;55.00;;;2.80;99.90;;;1.58;100.00;99348.16;5092051;28;20409;-82
2023/02/06 08:52:47;;;;;;;236.30;58.22;;;2.80;99.90;;;1.61;100.00;99343.44;5091324;28;21046;-82
2023/02/06 08:55:13;;;;;;;238.03;57.70;;;2.80;99.90;;;1.66;100.00;99346.44;5115137;28;20423;-73
2023/02/06 08:57:39;;;;;;;227.20;58.30;;;2.90;99.90;;;1.70;100.00;99347.81;5074130;28;20974;-78
2023/02/06 09:00:08;;;;;;;211.65;53.72;;;2.90;99.90;;;1.74;100.00;99346.53;5092563;28;20405;-76
2023/02/06 09:02:34;;;;;;;315.30;75.07;;;3.00;99.90;;;1.79;100.00;99351.31;5086301;28;20888;-76
2023/02/06 09:05:00;;;;;;;394.17;91.28;;;3.00;99.90;;;1.82;100.00;99364.06;5083725;28;20555;-77
2023/02/06 09:07:26;;;;;;;303.42;72.05;;;3.00;99.90;;;1.81;100.00;99357.19;5077528;28;20411;-76
2023/02/06 09:09:52;;;;;;;464.83;115.68;;;3.00;99.90;;;1.79;100.00;99361.78;5067071;28;20783;-76
2023/02/06 09:12:18;;;;;;;249.20;66.25;;;3.00;99.90;;;1.77;100.00;99358.47;5078819;28;20443;-77
2023/02/06 09:14:44;;;;;;;192.40;54.72;;;3.00;99.90;;;1.76;100.00;99354.22;5084534;28;20448;-75
2023/02/06 09:17:11;;;;;;;331.17;91.30;;;3.00;99.90;;;1.77;100.00;99353.25;5063896;28;20417;-77
2023/02/06 09:19:38;;;;;;;218.13;59.33;;;3.00;99.90;;;1.77;100.00;99353.25;5083648;28;20433;-76
2023/02/06 09:22:04;;;;;;;233.75;62.70;;;3.00;99.90;;;1.74;100.00;99354.34;5083779;28;20445;-76
2023/02/06 09:24:31;;;;;;;193.85;51.45;;;3.00;99.90;;;1.73;100.00;99355.31;5082131;28;20506;-76
2023/02/06 09:26:58;;;;;;;202.35;53.72;;;3.00;99.90;;;1.75;100.00;99353.41;5072743;28;20415;-75
2023/02/06 09:29:24;;;;;;;175.68;53.90;;;3.00;99.90;;;1.79;100.00;99359.97;5083124;28;20417;-75
2023/02/06 09:31:50;;;;;;;175.90;48.42;;;3.00;99.90;;;1.82;100.00;99357.06;5074991;28;20419;-74
2023/02/06 09:34:17;;;;;;;192.57;62.93;;;3.00;99.90;;;1.83;100.00;99352.66;5081577;28;20410;-78
2023/02/06 09:36:43;;;;;;;162.30;48.65;;;3.10;99.90;;;1.85;100.00;99348.13;5084712;28;20468;-79
2023/02/06 09:39:10;;;;;;;174.40;46.97;;;3.10;99.90;;;1.88;100.00;99353.84;5082716;28;20402;-77
2023/02/06 09:41:42;;;;;;;174.82;50.30;;;3.10;99.90;;;1.91;100.00;99334.47;5084471;28;20402;-77
2023/02/06 09:44:17;;;;;;;154.38;44.78;;;3.10;99.90;;;1.95;100.00;99328.78;5080333;28;20556;-79
2023/02/06 09:46:48;;;;;;;153.90;43.97;;;3.20;99.90;;;2.00;100.00;99327.53;5087714;28;20460;-77
2023/02/06 09:49:19;;;;;;;127.70;37.63;;;3.20;99.90;;;2.03;100.00;99325.44;5058546;28;20923;-76
2023/02/06 09:52:16;;;;;;;138.60;39.83;;;3.30;99.90;;;2.05;100.00;99315.66;5071017;28;20409;-77
2023/02/06 09:54:55;;;;;;;109.93;34.42;;;3.30;99.90;;;2.12;100.00;99308.06;5080952;28;20407;-77
2023/02/06 09:57:35;;;;;;;158.68;54.65;;;3.30;99.90;;;2.12;100.00;99308.06;5077714;28;20399;-77
2023/02/06 10:00:10;;;;;;;122.60;36.97;;;3.40;99.90;;;2.17;100.00;99308.44;5073644;28;20912;-79
2023/02/06 10:02:58;;;;;;;107.90;32.45;;;3.40;99.90;;;2.16;100.00;99302.41;5079258;28;20430;-77
2023/02/06 10:05:35;;;;;;;97.63;28.45;;;3.40;99.90;;;2.19;100.00;99296.03;5067858;28;20410;-80
2023/02/06 10:08:15;;;;;;;100.07;30.08;;;3.40;99.90;;;2.20;100.00;99289.84;5080669;28;20452;-80
2023/02/06 10:10:47;;;;;;;97.40;29.10;;;3.40;99.90;;;2.20;100.00;99290.66;5065028;28;20440;-75
2023/02/06 10:13:21;;;;;;;93.30;28.08;;;3.40;99.90;;;2.19;100.00;99291.63;5078478;28;20434;-76